Time;durP1;ratioP1;P1;durP2;ratioP2;P2;SDS_P1;SDS_P2;PMS_P1;PMS_P2;Temp;Humidity;BMP_temperature;BMP_pressure;BME280_temperature;BME280_humidity;BME280_pressure;Samples;Min_cycle;Max_cycle;Signal;HPM_P1;HPM_P2
2022/04/30 00:00:34;;;;;;;8.17;7.37;;;10.30;99.90;;;;;;5055844;28;20180;-70
2022/04/30 00:03:00;;;;;;;9.67;8.27;;;10.20;99.90;;;;;;5055442;28;20826;-70
2022/04/30 00:05:30;;;;;;;8.63;7.73;;;10.30;99.90;;;;;;5055827;28;20431;-71
2022/04/30 00:07:56;;;;;;;8.37;7.20;;;10.30;99.90;;;;;;5056872;28;20484;-69
2022/04/30 00:10:23;;;;;;;8.67;7.33;;;10.10;99.90;;;;;;5056845;28;20404;-69
2022/04/30 00:12:49;;;;;;;8.07;7.27;;;9.90;99.90;;;;;;5055415;28;20467;-69
2022/04/30 00:15:14;;;;;;;11.27;8.60;;;10.00;99.90;;;;;;5055318;28;20507;-70
2022/04/30 00:17:40;;;;;;;9.97;8.30;;;10.00;99.90;;;;;;5055001;28;20166;-68
2022/04/30 00:20:06;;;;;;;10.60;8.53;;;10.10;99.90;;;;;;5054985;28;20162;-70
2022/04/30 00:22:32;;;;;;;9.50;7.20;;;10.10;99.90;;;;;;5055172;28;20712;-69
2022/04/30 00:24:57;;;;;;;8.53;6.97;;;10.10;99.90;;;;;;5055036;28;20497;-68
2022/04/30 00:27:23;;;;;;;8.47;7.53;;;10.10;99.90;;;;;;5055034;28;20174;-69
2022/04/30 00:29:48;;;;;;;10.27;8.03;;;10.00;99.90;;;;;;5055078;28;20182;-68
2022/04/30 00:32:17;;;;;;;10.70;7.40;;;10.10;99.90;;;;;;5055008;28;20206;-70
2022/04/30 00:34:43;;;;;;;9.67;8.20;;;10.00;99.90;;;;;;5054803;28;20647;-68
2022/04/30 00:37:08;;;;;;;9.57;8.07;;;10.00;99.90;;;;;;5054553;28;20436;-68
2022/04/30 00:39:35;;;;;;;9.60;8.10;;;10.00;99.90;;;;;;5036633;28;20170;-67
2022/04/30 00:42:00;;;;;;;10.87;8.43;;;9.80;99.90;;;;;;5036889;28;20217;-69
2022/04/30 00:44:27;;;;;;;9.03;7.60;;;9.90;99.90;;;;;;5055068;28;20819;-69
2022/04/30 00:46:53;;;;;;;8.03;7.23;;;9.80;99.90;;;;;;5054657;28;20272;-68
2022/04/30 00:49:19;;;;;;;11.27;8.10;;;9.70;99.90;;;;;;5036904;28;20417;-69
2022/04/30 00:51:45;;;;;;;9.73;8.57;;;9.60;99.90;;;;;;5054518;28;20407;-68
2022/04/30 00:54:13;;;;;;;9.13;7.67;;;9.60;99.90;;;;;;5054932;28;20464;-68
2022/04/30 00:56:51;;;;;;;9.80;8.27;;;9.50;99.90;;;;;;5054413;28;20444;-68
2022/04/30 00:59:17;;;;;;;13.20;8.57;;;9.50;99.90;;;;;;5053679;28;20487;-69
2022/04/30 01:01:44;;;;;;;10.03;8.00;;;9.60;99.90;;;;;;5054485;28;20408;-68
2022/04/30 01:04:10;;;;;;;10.90;7.60;;;9.50;99.90;;;;;;5055721;28;20412;-68
2022/04/30 01:06:55;;;;;;;11.17;8.40;;;9.60;99.90;;;;;;5054648;28;20412;-70
2022/04/30 01:09:34;;;;;;;9.90;8.90;;;9.70;99.90;;;;;;5036666;28;20210;-69
2022/04/30 01:12:08;;;;;;;12.33;8.10;;;9.70;99.90;;;;;;5054311;28;20448;-69
2022/04/30 01:14:34;;;;;;;10.10;8.10;;;9.80;99.90;;;;;;5054324;28;20416;-69
2022/04/30 01:17:02;;;;;;;8.70;7.40;;;9.90;99.90;;;;;;5054414;28;20404;-68
2022/04/30 01:19:28;;;;;;;10.97;8.07;;;9.80;99.90;;;;;;5052502;28;20912;-68
2022/04/30 01:21:58;;;;;;;9.30;8.20;;;9.80;99.90;;;;;;5052658;28;20397;-69
2022/04/30 01:24:26;;;;;;;9.80;8.17;;;9.80;99.90;;;;;;5035725;28;20424;-70
2022/04/30 01:26:53;;;;;;;10.00;7.80;;;9.90;99.90;;;;;;5053397;28;20408;-68
2022/04/30 01:29:20;;;;;;;11.70;8.27;;;9.90;99.90;;;;;;5054023;28;20527;-68
2022/04/30 01:37:24;;;;;;;12.60;8.60;;;9.90;99.90;;;;;;5053804;28;20454;-68
2022/04/30 01:39:52;;;;;;;12.37;8.30;;;9.80;99.90;;;;;;5054218;28;20781;-69
2022/04/30 01:42:18;;;;;;;12.47;8.93;;;9.70;99.90;;;;;;5054010;28;20435;-69
2022/04/30 01:44:46;;;;;;;9.47;8.57;;;9.60;99.90;;;;;;5054201;28;20858;-68
2022/04/30 01:47:14;;;;;;;10.90;8.07;;;9.60;99.90;;;;;;5036562;28;20434;-68
2022/04/30 01:49:39;;;;;;;10.00;8.40;;;9.50;99.90;;;;;;5035960;28;20945;-68
2022/04/30 01:52:09;;;;;;;13.40;8.73;;;9.40;99.90;;;;;;5054544;28;20428;-68
2022/04/30 01:54:36;;;;;;;10.57;8.23;;;9.50;99.90;;;;;;5053645;28;20193;-68
2022/04/30 01:57:02;;;;;;;10.13;8.20;;;9.40;99.90;;;;;;5053645;28;20408;-69
2022/04/30 01:59:28;;;;;;;10.70;8.03;;;9.40;99.90;;;;;;5054954;28;20415;-68
2022/04/30 02:01:55;;;;;;;9.90;8.40;;;9.50;99.90;;;;;;5058894;28;20409;-69
2022/04/30 02:04:22;;;;;;;12.30;8.50;;;9.50;99.90;;;;;;5063288;28;20416;-69
2022/04/30 02:06:49;;;;;;;13.33;8.10;;;9.50;99.90;;;;;;5063174;28;20408;-68
2022/04/30 02:09:15;;;;;;;12.10;7.97;;;9.50;99.90;;;;;;5063001;28;20419;-69
2022/04/30 02:11:44;;;;;;;11.87;9.73;;;9.60;99.90;;;;;;5061218;28;20440;-68
2022/04/30 02:14:15;;;;;;;10.20;8.43;;;9.60;99.90;;;;;;5053613;28;20471;-68
2022/04/30 02:16:42;;;;;;;9.87;7.80;;;9.50;99.90;;;;;;5053887;28;20410;-68
2022/04/30 02:19:08;;;;;;;11.10;8.10;;;9.30;99.90;;;;;;5061702;28;20431;-68
2022/04/30 02:21:35;;;;;;;11.00;9.60;;;9.20;99.90;;;;;;5072261;28;20408;-68
2022/04/30 02:24:02;;;;;;;11.60;9.83;;;9.20;99.90;;;;;;5073390;28;20193;-70
2022/04/30 02:26:28;;;;;;;11.53;8.23;;;9.10;99.90;;;;;;5073551;28;20407;-69
2022/04/30 02:28:57;;;;;;;11.43;9.20;;;9.00;99.90;;;;;;5073311;28;20396;-68
2022/04/30 02:31:25;;;;;;;11.77;9.83;;;8.90;99.90;;;;;;5073910;28;20647;-69
2022/04/30 02:33:56;;;;;;;15.70;8.80;;;8.80;99.90;;;;;;5064328;28;20809;-69
2022/04/30 02:36:26;;;;;;;10.47;8.10;;;8.90;99.90;;;;;;5053592;28;20413;-68
2022/04/30 02:38:56;;;;;;;10.13;8.70;;;8.80;99.90;;;;;;5035147;28;20784;-68
2022/04/30 02:41:22;;;;;;;12.17;9.07;;;8.90;99.90;;;;;;5052225;28;20440;-68
2022/04/30 02:43:52;;;;;;;10.70;9.30;;;8.80;99.90;;;;;;5052829;28;20489;-68
2022/04/30 02:46:21;;;;;;;9.80;8.90;;;8.80;99.90;;;;;;5052713;28;20412;-68
2022/04/30 02:48:47;;;;;;;14.43;9.10;;;8.80;99.90;;;;;;5053359;28;20473;-68
2022/04/30 02:51:14;;;;;;;9.50;8.10;;;8.80;99.90;;;;;;5053178;28;20505;-69
2022/04/30 02:53:41;;;;;;;9.50;8.20;;;8.90;99.90;;;;;;5052511;28;20471;-68
2022/04/30 02:56:07;;;;;;;13.30;8.93;;;8.80;99.90;;;;;;5052840;28;20469;-68
2022/04/30 03:01:19;;;;;;;11.40;8.60;;;8.80;99.90;;;;;;5053674;28;20434;-68
2022/04/30 03:03:46;;;;;;;10.50;7.87;;;8.90;99.90;;;;;;5035965;28;20432;-68
2022/04/30 03:06:13;;;;;;;12.93;7.50;;;8.90;99.90;;;;;;5035992;28;20420;-68
2022/04/30 03:08:40;;;;;;;10.20;8.53;;;8.90;99.90;;;;;;5052010;28;20566;-69
2022/04/30 03:11:07;;;;;;;13.30;7.83;;;9.00;99.90;;;;;;5053595;28;20424;-69
2022/04/30 03:13:36;;;;;;;9.13;8.23;;;9.00;99.90;;;;;;5035789;28;20470;-69
2022/04/30 03:21:44;;;;;;;8.83;7.90;;;8.80;99.90;;;;;;5055285;28;20799;-68
2022/04/30 03:24:11;;;;;;;17.93;8.40;;;8.70;99.90;;;;;;5056949;28;20540;-68
2022/04/30 03:26:37;;;;;;;10.67;7.17;;;8.70;99.90;;;;;;5058954;28;20431;-69
2022/04/30 03:29:03;;;;;;;10.50;8.17;;;8.60;99.90;;;;;;5060572;28;20408;-67
2022/04/30 03:31:32;;;;;;;8.70;7.37;;;8.50;99.90;;;;;;5059864;28;20547;-70
2022/04/30 03:33:57;;;;;;;11.10;6.97;;;8.30;99.90;;;;;;5059810;28;20491;-69
2022/04/30 03:36:23;;;;;;;9.80;7.00;;;8.30;99.90;;;;;;5057681;28;20410;-70
2022/04/30 03:38:48;;;;;;;11.10;7.97;;;8.10;99.90;;;;;;5058174;28;20651;-70
2022/04/30 03:41:15;;;;;;;11.50;7.70;;;8.10;99.90;;;;;;5057266;28;20577;-69
2022/04/30 03:43:41;;;;;;;8.20;7.10;;;8.10;99.90;;;;;;5056495;28;20672;-70
2022/04/30 03:46:07;;;;;;;9.90;7.23;;;8.10;99.90;;;;;;5056892;28;20410;-68
2022/04/30 03:48:33;;;;;;;13.73;8.23;;;8.00;99.90;;;;;;5057043;28;20639;-69
2022/04/30 03:50:59;;;;;;;9.37;6.90;;;8.10;99.90;;;;;;5038654;28;20602;-69
2022/04/30 03:53:24;;;;;;;12.43;9.20;;;8.10;99.90;;;;;;5056436;28;20834;-69
2022/04/30 03:55:51;;;;;;;9.27;7.87;;;8.00;99.90;;;;;;5057024;28;20420;-69
2022/04/30 03:58:16;;;;;;;8.50;7.70;;;8.00;99.90;;;;;;5057043;28;20177;-69
2022/04/30 04:00:43;;;;;;;9.80;7.37;;;8.00;99.90;;;;;;5055787;28;20405;-69
2022/04/30 04:03:09;;;;;;;9.03;7.83;;;7.80;99.90;;;;;;5039237;28;20203;-69
2022/04/30 04:05:35;;;;;;;8.63;7.73;;;7.80;99.90;;;;;;5038270;28;20422;-69
2022/04/30 04:08:00;;;;;;;9.57;7.37;;;7.80;99.90;;;;;;5055467;28;20231;-70
2022/04/30 04:10:26;;;;;;;10.37;7.33;;;7.90;99.90;;;;;;5054865;28;20182;-70
2022/04/30 04:12:52;;;;;;;9.90;7.30;;;7.90;99.90;;;;;;5054893;28;20208;-70
2022/04/30 04:18:02;;;;;;;10.67;8.57;;;7.80;99.90;;;;;;5054914;28;20420;-69
2022/04/30 04:20:28;;;;;;;11.17;7.90;;;7.80;99.90;;;;;;5054919;28;20408;-70
2022/04/30 04:22:56;;;;;;;10.07;8.17;;;8.00;99.90;;;;;;5054871;28;20198;-68
2022/04/30 04:28:06;;;;;;;9.60;8.03;;;8.10;99.90;;;;;;5054955;28;20437;-69
2022/04/30 04:30:33;;;;;;;9.60;7.57;;;8.10;99.90;;;;;;5053901;28;20416;-69
2022/04/30 04:32:59;;;;;;;10.20;6.80;;;8.20;99.90;;;;;;5053093;28;20703;-70
2022/04/30 04:35:25;;;;;;;9.93;7.50;;;8.30;99.90;;;;;;5054088;28;20408;-69
2022/04/30 04:37:51;;;;;;;10.27;7.80;;;8.30;99.90;;;;;;5053584;28;20226;-70
2022/04/30 04:40:17;;;;;;;13.80;9.27;;;8.40;99.90;;;;;;5054071;28;20413;-70
2022/04/30 04:42:44;;;;;;;9.90;8.63;;;8.50;99.90;;;;;;5036296;28;20194;-70
2022/04/30 04:45:11;;;;;;;8.53;7.70;;;8.60;99.90;;;;;;5059836;28;20408;-70
2022/04/30 04:47:40;;;;;;;13.53;9.07;;;8.70;99.90;;;;;;5056333;28;20410;-69
2022/04/30 04:50:12;;;;;;;10.47;8.30;;;8.60;99.90;;;;;;5054842;28;20489;-70
2022/04/30 04:52:38;;;;;;;12.23;9.90;;;8.50;99.90;;;;;;5055215;28;21007;-70
2022/04/30 04:55:04;;;;;;;10.77;9.20;;;8.30;99.90;;;;;;5055152;28;20409;-70
2022/04/30 04:57:29;;;;;;;13.00;10.03;;;8.20;99.90;;;;;;5054984;28;20414;-69
2022/04/30 04:59:56;;;;;;;12.53;9.53;;;8.20;99.90;;;;;;5053771;28;20413;-69
2022/04/30 05:02:22;;;;;;;8.37;7.53;;;8.20;99.90;;;;;;5035566;28;20315;-69
2022/04/30 05:04:47;;;;;;;9.03;7.87;;;8.30;99.90;;;;;;5053923;28;20875;-69
2022/04/30 05:07:13;;;;;;;8.50;7.70;;;8.20;99.90;;;;;;5053865;28;20173;-69
2022/04/30 05:09:39;;;;;;;12.43;8.47;;;8.10;99.90;;;;;;5053261;28;20174;-68
2022/04/30 05:14:33;;;;;;;8.47;7.30;;;8.20;99.90;;;;;;5089354;22;20659;-71
2022/04/30 05:16:59;;;;;;;9.00;7.67;;;8.30;99.90;;;;;;5073565;28;20167;-71
2022/04/30 05:19:25;;;;;;;10.50;8.10;;;8.50;99.90;;;;;;5072429;28;20744;-71
2022/04/30 05:21:51;;;;;;;9.67;7.40;;;8.50;99.90;;;;;;5072710;28;20442;-72
2022/04/30 05:24:16;;;;;;;7.90;6.90;;;8.50;99.90;;;;;;5072925;28;20206;-72
2022/04/30 05:26:41;;;;;;;13.33;7.70;;;8.40;99.90;;;;;;5078392;28;20180;-71
2022/04/30 05:29:07;;;;;;;13.43;7.70;;;8.50;99.90;;;;;;5079274;28;20193;-72
2022/04/30 05:31:32;;;;;;;10.00;8.07;;;8.70;99.90;;;;;;5076867;28;20179;-71
2022/04/30 05:33:58;;;;;;;8.90;7.63;;;8.60;99.90;;;;;;5072742;28;20205;-72
2022/04/30 05:36:24;;;;;;;9.53;8.30;;;8.70;99.90;;;;;;5073867;28;20201;-71
2022/04/30 05:38:51;;;;;;;9.07;7.97;;;8.80;99.90;;;;;;5072818;28;20170;-72
2022/04/30 05:41:17;;;;;;;13.43;9.00;;;8.90;99.90;;;;;;5069313;28;20870;-72
2022/04/30 05:43:43;;;;;;;13.80;8.10;;;9.10;99.90;;;;;;5071913;28;20232;-71
2022/04/30 05:46:08;;;;;;;8.87;7.63;;;9.00;99.90;;;;;;5070925;28;20507;-71
2022/04/30 05:48:34;;;;;;;10.40;7.87;;;8.90;99.90;;;;;;5072696;28;20173;-72
2022/04/30 05:51:02;;;;;;;9.90;7.57;;;9.00;99.90;;;;;;5071024;28;20181;-72
2022/04/30 05:53:27;;;;;;;12.70;6.97;;;9.10;99.90;;;;;;5070285;28;20216;-72
2022/04/30 05:55:53;;;;;;;15.73;7.77;;;8.90;99.90;;;;;;5071723;28;20419;-71
2022/04/30 05:58:19;;;;;;;10.77;7.33;;;9.00;99.90;;;;;;5071789;28;20524;-72
2022/04/30 06:00:45;;;;;;;11.43;8.60;;;9.00;99.90;;;;;;5070904;28;20223;-72
2022/04/30 06:03:11;;;;;;;10.73;8.20;;;9.00;99.90;;;;;;5070425;28;20447;-72
2022/04/30 06:05:37;;;;;;;12.10;9.37;;;9.10;99.90;;;;;;5071595;28;20407;-71
2022/04/30 06:08:07;;;;;;;12.30;9.20;;;9.10;99.90;;;;;;5071820;28;20184;-71
2022/04/30 06:10:32;;;;;;;11.83;10.63;;;9.00;99.90;;;;;;5071209;28;20495;-71
2022/04/30 06:12:58;;;;;;;17.80;10.20;;;8.80;99.90;;;;;;5070825;28;20474;-73
2022/04/30 06:15:25;;;;;;;13.47;10.20;;;8.70;99.90;;;;;;5070360;28;20455;-71
2022/04/30 06:17:50;;;;;;;11.30;9.90;;;8.60;99.90;;;;;;5071226;28;20415;-71
2022/04/30 06:20:16;;;;;;;13.03;8.90;;;8.70;99.90;;;;;;5071817;28;20408;-72
2022/04/30 06:22:42;;;;;;;13.23;10.37;;;8.80;99.90;;;;;;5072421;28;20286;-71
2022/04/30 06:25:08;;;;;;;10.63;9.20;;;8.90;99.90;;;;;;5070321;28;20662;-72
2022/04/30 06:27:34;;;;;;;11.80;8.93;;;9.10;99.90;;;;;;5071474;28;20212;-71
2022/04/30 06:30:00;;;;;;;13.07;9.00;;;9.10;99.90;;;;;;5068005;28;20463;-71
2022/04/30 06:32:26;;;;;;;11.97;8.23;;;9.10;99.90;;;;;;5071497;28;20855;-71
2022/04/30 06:34:52;;;;;;;11.17;9.60;;;9.20;99.90;;;;;;5070485;28;20457;-71
2022/04/30 06:37:18;;;;;;;14.43;10.43;;;9.10;99.90;;;;;;5069979;28;20451;-71
2022/04/30 06:39:44;;;;;;;11.23;10.10;;;9.10;99.90;;;;;;5070565;28;20188;-72
2022/04/30 06:42:09;;;;;;;21.33;10.90;;;9.10;99.90;;;;;;5070991;28;20174;-73
2022/04/30 06:44:35;;;;;;;12.90;11.30;;;9.30;99.90;;;;;;5071323;28;20500;-71
2022/04/30 06:47:01;;;;;;;13.43;10.63;;;9.40;99.90;;;;;;5070079;28;20189;-72
2022/04/30 06:49:26;;;;;;;13.43;10.70;;;9.40;99.90;;;;;;5071327;28;20189;-72
2022/04/30 06:51:52;;;;;;;13.50;10.63;;;9.50;99.90;;;;;;5071315;28;20189;-72
2022/04/30 06:57:11;;;;;;;11.10;10.00;;;9.80;99.90;;;;;;5070177;28;20565;-71
2022/04/30 06:59:39;;;;;;;12.30;9.07;;;9.80;99.90;;;;;;5068150;28;20479;-72
2022/04/30 07:02:12;;;;;;;11.27;9.77;;;9.80;99.90;;;;;;5054095;28;20488;-72
2022/04/30 07:04:39;;;;;;;12.10;9.50;;;9.90;99.90;;;;;;5072387;28;20520;-72
2022/04/30 07:07:05;;;;;;;11.37;9.37;;;9.90;99.90;;;;;;5073947;28;20959;-71
2022/04/30 07:09:34;;;;;;;8.97;7.93;;;9.90;99.90;;;;;;5072583;28;20824;-70
2022/04/30 07:12:03;;;;;;;12.73;9.37;;;9.90;99.90;;;;;;5073699;28;20454;-71
2022/04/30 07:14:28;;;;;;;11.40;9.87;;;9.90;99.90;;;;;;5070631;28;20487;-71
2022/04/30 07:16:54;;;;;;;11.10;9.10;;;10.00;99.90;;;;;;5073022;28;20455;-72
2022/04/30 07:19:19;;;;;;;11.27;10.13;;;10.10;99.90;;;;;;5072531;28;20220;-70
2022/04/30 07:21:45;;;;;;;10.53;9.43;;;10.00;99.90;;;;;;5074058;28;20197;-71
2022/04/30 07:24:10;;;;;;;10.83;9.10;;;10.10;99.90;;;;;;5073947;28;20205;-71
2022/04/30 07:26:36;;;;;;;12.13;9.80;;;10.30;99.90;;;;;;5074853;28;20197;-71
2022/04/30 07:29:02;;;;;;;13.10;11.00;;;10.20;99.90;;;;;;5074539;28;20192;-71
2022/04/30 07:31:27;;;;;;;11.83;10.70;;;10.30;99.90;;;;;;5071706;28;20259;-71
2022/04/30 07:33:54;;;;;;;10.90;9.60;;;10.40;99.90;;;;;;5074543;28;20205;-72
2022/04/30 07:36:20;;;;;;;15.63;11.23;;;10.50;99.90;;;;;;5073313;28;20194;-72
2022/04/30 07:38:45;;;;;;;12.07;10.73;;;10.50;99.90;;;;;;5073399;28;20411;-72
2022/04/30 07:41:11;;;;;;;10.80;9.67;;;10.50;99.90;;;;;;5074158;28;20657;-72
2022/04/30 07:43:37;;;;;;;11.13;10.13;;;10.40;99.90;;;;;;5074373;28;20431;-72
2022/04/30 07:46:02;;;;;;;12.60;9.57;;;10.50;99.90;;;;;;5073064;28;20177;-71
2022/04/30 07:48:28;;;;;;;10.80;9.73;;;10.60;99.90;;;;;;5074157;28;20268;-72
2022/04/30 07:50:57;;;;;;;9.90;8.53;;;10.40;99.90;;;;;;5073519;28;20181;-72
2022/04/30 07:53:23;;;;;;;10.40;9.40;;;10.30;99.90;;;;;;5074272;28;20292;-72
2022/04/30 07:55:49;;;;;;;9.77;8.80;;;10.20;99.90;;;;;;5072376;28;20469;-71
2022/04/30 07:58:14;;;;;;;11.00;8.90;;;10.30;99.90;;;;;;5072826;28;20408;-71
2022/04/30 08:00:40;;;;;;;12.70;9.07;;;10.40;99.90;;;;;;5072021;28;20243;-71
2022/04/30 08:03:06;;;;;;;10.17;8.13;;;10.40;99.90;;;;;;5073067;28;20350;-72
2022/04/30 08:05:31;;;;;;;9.90;8.17;;;10.50;99.90;;;;;;5073352;28;20685;-72
2022/04/30 08:07:57;;;;;;;9.80;7.77;;;10.40;99.90;;;;;;5072582;28;20268;-71
2022/04/30 08:10:23;;;;;;;11.20;8.17;;;10.20;99.90;;;;;;5073637;28;20173;-72
2022/04/30 08:12:53;;;;;;;10.13;9.03;;;10.10;99.90;;;;;;5073815;28;20201;-71
2022/04/30 08:15:20;;;;;;;10.33;8.40;;;10.20;99.90;;;;;;5072770;28;20173;-71
2022/04/30 08:17:46;;;;;;;9.57;8.50;;;10.20;99.90;;;;;;5073428;28;20487;-71
2022/04/30 08:20:11;;;;;;;10.63;8.87;;;10.30;99.90;;;;;;5073257;28;20573;-71
2022/04/30 08:22:37;;;;;;;8.87;7.90;;;10.40;99.90;;;;;;5073110;28;20227;-72
2022/04/30 08:25:03;;;;;;;12.33;9.80;;;10.50;99.90;;;;;;5073077;28;20244;-71
2022/04/30 08:27:28;;;;;;;10.70;8.93;;;10.40;99.90;;;;;;5074747;28;20170;-71
2022/04/30 08:29:54;;;;;;;18.43;15.67;;;10.30;99.90;;;;;;5073517;28;20513;-71
2022/04/30 08:32:23;;;;;;;8.97;8.07;;;10.20;99.90;;;;;;5075961;28;20200;-71
2022/04/30 08:34:49;;;;;;;7.30;6.53;;;10.20;99.90;;;;;;5072101;28;20197;-71
2022/04/30 08:37:14;;;;;;;8.73;6.90;;;10.00;99.60;;;;;;5072439;28;20839;-71
2022/04/30 08:39:40;;;;;;;12.47;8.63;;;10.10;99.90;;;;;;5072294;28;20696;-71
2022/04/30 08:42:06;;;;;;;8.63;7.80;;;10.20;99.90;;;;;;5063929;28;20221;-71
2022/04/30 08:44:36;;;;;;;8.90;7.57;;;10.30;99.10;;;;;;5069181;28;20204;-72
2022/04/30 08:47:02;;;;;;;8.70;7.80;;;10.40;98.80;;;;;;5067889;28;20447;-71
2022/04/30 08:49:27;;;;;;;8.73;7.30;;;10.50;98.60;;;;;;5061073;28;20869;-73
2022/04/30 08:51:53;;;;;;;7.67;6.90;;;10.70;98.80;;;;;;5060216;28;20452;-72
2022/04/30 08:54:18;;;;;;;13.23;8.60;;;10.70;98.70;;;;;;5068009;28;20299;-72
2022/04/30 08:56:56;;;;;;;12.57;9.10;;;11.00;98.50;;;;;;5066403;28;20933;-72
2022/04/30 08:59:23;;;;;;;10.17;8.10;;;11.50;97.80;;;;;;5066083;28;20439;-72
2022/04/30 09:01:51;;;;;;;8.03;7.23;;;11.90;96.70;;;;;;5065838;28;20539;-72
2022/04/30 09:04:18;;;;;;;8.60;7.80;;;12.20;96.00;;;;;;5066583;28;20530;-71
2022/04/30 09:06:50;;;;;;;8.27;7.53;;;12.30;95.80;;;;;;5066891;28;20455;-72
2022/04/30 09:09:26;;;;;;;7.40;6.70;;;12.10;96.10;;;;;;5066925;28;20559;-72
2022/04/30 09:11:57;;;;;;;7.03;6.07;;;11.60;95.80;;;;;;5066837;28;20459;-71
2022/04/30 09:14:29;;;;;;;7.97;6.97;;;11.10;95.60;;;;;;5065473;28;21060;-72
2022/04/30 09:17:05;;;;;;;7.80;6.60;;;11.10;96.10;;;;;;5067745;28;20831;-72
2022/04/30 09:19:52;;;;;;;6.63;5.93;;;11.10;97.00;;;;;;5065579;28;20451;-71
2022/04/30 09:22:34;;;;;;;8.37;6.00;;;11.00;96.80;;;;;;5066640;28;21051;-72
2022/04/30 09:25:03;;;;;;;9.27;6.40;;;11.00;96.50;;;;;;5066306;28;20443;-71
2022/04/30 09:27:29;;;;;;;7.03;5.93;;;10.90;96.90;;;;;;5066730;28;20448;-71
2022/04/30 09:29:54;;;;;;;7.07;6.17;;;10.80;97.30;;;;;;5067174;28;20504;-71
2022/04/30 09:32:24;;;;;;;7.10;6.40;;;11.00;97.10;;;;;;5067205;28;20229;-72
2022/04/30 09:37:48;;;;;;;6.17;5.03;;;11.40;95.80;;;;;;5066604;28;20466;-71
2022/04/30 09:40:13;;;;;;;4.77;4.13;;;11.60;95.20;;;;;;5066369;28;20542;-71
2022/04/30 09:42:42;;;;;;;4.20;3.80;;;12.00;95.00;;;;;;5066745;28;20626;-72
2022/04/30 09:45:09;;;;;;;5.77;4.90;;;12.20;94.00;;;;;;5067499;28;20720;-71
2022/04/30 09:47:35;;;;;;;8.00;4.70;;;12.40;93.60;;;;;;5066320;28;20827;-71
2022/04/30 09:53:56;;;;;;;4.40;4.00;;;12.50;92.40;;;;;;5067143;28;20486;-71
2022/04/30 09:55:53;;;;;;;3.97;3.43;;;12.60;91.50;;;;;;5066566;28;20485;-71
2022/04/30 09:58:25;;;;;;;3.73;3.43;;;12.40;91.80;;;;;;5067066;28;20478;-71
2022/04/30 10:00:57;;;;;;;3.37;3.17;;;12.70;91.80;;;;;;5066220;28;21185;-71
2022/04/30 10:03:30;;;;;;;5.87;3.07;;;12.80;90.80;;;;;;5065867;28;20463;-71
2022/04/30 10:06:01;;;;;;;5.07;3.67;;;13.00;90.90;;;;;;5067561;28;20440;-71
2022/04/30 10:08:30;;;;;;;3.77;3.20;;;13.10;90.10;;;;;;5066958;28;20544;-71
2022/04/30 10:11:26;;;;;;;5.73;4.17;;;13.40;90.30;;;;;;5066595;28;20823;-71
2022/04/30 10:14:13;;;;;;;5.07;3.77;;;13.50;90.40;;;;;;5065694;28;20518;-70
2022/04/30 10:16:42;;;;;;;6.30;4.40;;;13.40;90.60;;;;;;5065737;28;20443;-70
2022/04/30 10:19:16;;;;;;;6.67;3.87;;;13.10;91.20;;;;;;5065225;28;20516;-70
2022/04/30 10:21:42;;;;;;;4.73;4.23;;;13.20;91.70;;;;;;5066281;28;20447;-70
2022/04/30 10:24:12;;;;;;;4.57;4.17;;;13.20;91.60;;;;;;5066117;28;21017;-70
2022/04/30 10:26:38;;;;;;;5.10;4.20;;;13.10;91.50;;;;;;5066244;28;20851;-71
2022/04/30 10:29:11;;;;;;;7.20;4.00;;;12.90;91.50;;;;;;5066326;28;20467;-71
2022/04/30 10:31:44;;;;;;;6.03;3.87;;;12.90;91.60;;;;;;5068380;28;20439;-71
2022/04/30 10:34:11;;;;;;;4.50;4.10;;;12.70;91.40;;;;;;5069633;28;20490;-71
2022/04/30 10:36:38;;;;;;;6.37;3.73;;;12.70;91.50;;;;;;5070038;28;20455;-71
2022/04/30 10:39:06;;;;;;;4.93;4.20;;;12.70;91.30;;;;;;5070747;28;20439;-71
2022/04/30 10:41:45;;;;;;;4.00;3.47;;;12.80;91.30;;;;;;5069884;28;20927;-71
2022/04/30 10:44:13;;;;;;;4.17;3.73;;;12.60;90.70;;;;;;5070390;28;20443;-71
2022/04/30 10:46:45;;;;;;;8.23;4.53;;;12.80;91.10;;;;;;5069809;28;20435;-71
2022/04/30 10:49:11;;;;;;;4.83;3.70;;;12.90;91.10;;;;;;5069822;28;20447;-72
2022/04/30 10:51:40;;;;;;;4.40;3.83;;;12.80;90.30;;;;;;5069858;28;20467;-71
2022/04/30 10:54:16;;;;;;;4.83;4.03;;;12.90;90.20;;;;;;5070036;28;20471;-71
2022/04/30 10:56:43;;;;;;;4.57;4.07;;;13.20;90.40;;;;;;5070544;28;20455;-71
2022/04/30 10:59:09;;;;;;;4.23;3.90;;;13.30;88.40;;;;;;5070440;28;20475;-72
2022/04/30 11:01:34;;;;;;;4.70;3.80;;;13.20;87.30;;;;;;5069519;28;21105;-72
2022/04/30 11:04:01;;;;;;;4.20;3.60;;;13.10;87.60;;;;;;5069833;28;20233;-71
2022/04/30 11:06:30;;;;;;;4.33;3.50;;;13.00;87.50;;;;;;5069963;28;20241;-72
2022/04/30 11:09:08;;;;;;;4.47;3.90;;;13.00;86.40;;;;;;5069819;28;20467;-70
2022/04/30 11:11:35;;;;;;;5.20;4.10;;;13.30;88.10;;;;;;5069433;28;20447;-73
2022/04/30 11:14:02;;;;;;;7.10;4.40;;;13.40;89.10;;;;;;5069424;28;20497;-71
2022/04/30 11:16:32;;;;;;;5.30;4.90;;;13.50;88.80;;;;;;5068884;28;20459;-71
2022/04/30 11:18:59;;;;;;;7.37;4.60;;;13.50;89.20;;;;;;5069628;28;20484;-72
2022/04/30 11:21:33;;;;;;;4.30;3.90;;;13.30;89.20;;;;;;5069720;28;20980;-72
2022/04/30 11:23:59;;;;;;;6.47;4.27;;;13.10;89.10;;;;;;5068334;28;21392;-72
2022/04/30 11:26:24;;;;;;;4.80;4.40;;;13.10;88.00;;;;;;5069493;28;20455;-70
2022/04/30 11:28:50;;;;;;;5.73;3.90;;;12.90;87.30;;;;;;5069791;28;20277;-72
2022/04/30 11:31:20;;;;;;;3.90;3.60;;;13.10;88.30;;;;;;5068459;28;20224;-70
2022/04/30 11:33:46;;;;;;;4.70;4.20;;;13.40;88.70;;;;;;5069322;28;20486;-71
2022/04/30 11:36:12;;;;;;;6.53;4.27;;;13.70;89.40;;;;;;5069670;28;20451;-72
2022/04/30 11:38:38;;;;;;;5.60;4.17;;;14.00;88.40;;;;;;5067475;28;20253;-72
2022/04/30 11:41:05;;;;;;;5.57;5.07;;;14.10;86.50;;;;;;5060460;28;20473;-70
2022/04/30 11:43:30;;;;;;;4.80;3.83;;;14.00;85.80;;;;;;5068861;28;20466;-71
2022/04/30 11:46:00;;;;;;;4.70;4.30;;;13.90;87.10;;;;;;5069430;28;20520;-70
2022/04/30 11:48:31;;;;;;;5.50;5.00;;;13.80;86.60;;;;;;5068909;28;20274;-71
2022/04/30 11:50:57;;;;;;;5.73;4.57;;;13.70;85.90;;;;;;5069259;28;20466;-71
2022/04/30 11:53:23;;;;;;;4.83;4.40;;;13.60;86.40;;;;;;5068848;28;20479;-71
2022/04/30 11:55:50;;;;;;;4.77;4.37;;;13.50;84.80;;;;;;5069851;28;20858;-72
2022/04/30 11:58:15;;;;;;;4.73;4.33;;;13.40;85.70;;;;;;5069001;28;20448;-72
2022/04/30 12:00:41;;;;;;;5.07;4.57;;;13.50;86.60;;;;;;5066716;28;20442;-71
2022/04/30 12:03:09;;;;;;;5.40;4.50;;;13.50;87.20;;;;;;5050378;28;20217;-72
2022/04/30 12:05:34;;;;;;;7.10;4.90;;;13.80;86.90;;;;;;5069388;28;20201;-72
2022/04/30 12:08:01;;;;;;;4.10;3.80;;;14.10;85.20;;;;;;5068852;28;20485;-71
2022/04/30 12:10:27;;;;;;;5.00;4.50;;;14.20;83.00;;;;;;5068662;28;20194;-72
2022/04/30 12:12:53;;;;;;;5.20;4.70;;;14.40;83.60;;;;;;5068346;28;20489;-72
2022/04/30 12:15:26;;;;;;;5.30;4.80;;;14.30;84.20;;;;;;5067436;28;20436;-71
2022/04/30 12:27:02;;;;;;;5.73;5.10;;;13.90;86.60;;;;;;5045968;28;20586;-72
2022/04/30 12:29:29;;;;;;;6.90;5.00;;;14.10;86.40;;;;;;5031451;28;20510;-73
2022/04/30 12:31:56;;;;;;;5.43;4.73;;;13.90;84.90;;;;;;5033073;28;20464;-71
2022/04/30 12:34:27;;;;;;;5.30;4.50;;;13.80;85.20;;;;;;5049690;28;20860;-72
2022/04/30 12:36:57;;;;;;;5.40;4.90;;;13.90;84.60;;;;;;5032227;28;20499;-72
2022/04/30 12:39:24;;;;;;;5.17;4.70;;;14.00;84.10;;;;;;5048700;28;20252;-72
2022/04/30 12:41:51;;;;;;;5.20;4.30;;;14.10;84.00;;;;;;5050318;28;20451;-70
2022/04/30 12:44:17;;;;;;;5.63;5.13;;;14.40;83.70;;;;;;5049126;28;20435;-71
2022/04/30 12:46:44;;;;;;;6.20;4.07;;;14.60;82.90;;;;;;5049247;28;20309;-71
2022/04/30 12:49:11;;;;;;;5.53;5.03;;;14.70;82.90;;;;;;5049632;28;20233;-71
2022/04/30 12:51:36;;;;;;;6.37;5.37;;;14.80;82.30;;;;;;5072352;22;20560;-69
2022/04/30 12:54:02;;;;;;;5.67;5.10;;;14.50;84.00;;;;;;5050714;28;20482;-68
2022/04/30 12:56:29;;;;;;;10.60;5.97;;;14.50;85.00;;;;;;5054284;28;20582;-71
2022/04/30 12:58:55;;;;;;;6.90;5.60;;;14.40;84.60;;;;;;5053981;28;20666;-69
2022/04/30 13:01:20;;;;;;;6.00;5.40;;;14.30;85.50;;;;;;5054079;28;20421;-69
2022/04/30 13:03:46;;;;;;;6.47;5.17;;;14.30;85.20;;;;;;5054399;28;20198;-68
2022/04/30 13:06:12;;;;;;;5.13;4.73;;;14.40;85.60;;;;;;5054617;28;20236;-69
2022/04/30 13:14:06;;;;;;;4.70;4.40;;;14.50;82.00;;;;;;5054078;28;20487;-69
2022/04/30 13:16:32;;;;;;;5.17;4.67;;;14.50;81.30;;;;;;5053667;28;20894;-69
2022/04/30 13:18:58;;;;;;;4.20;3.90;;;14.50;80.70;;;;;;5053245;28;20190;-68
2022/04/30 13:21:24;;;;;;;4.70;4.30;;;14.60;80.90;;;;;;5052770;28;20893;-69
2022/04/30 13:23:49;;;;;;;5.30;4.80;;;15.00;80.80;;;;;;5053185;28;20524;-68
2022/04/30 13:26:15;;;;;;;4.67;4.30;;;15.20;80.50;;;;;;5053069;28;20171;-67
2022/04/30 13:28:40;;;;;;;4.53;4.13;;;15.50;80.50;;;;;;5052708;28;20300;-68
2022/04/30 13:31:06;;;;;;;5.57;5.07;;;15.80;79.30;;;;;;5052594;28;20170;-68